sensor_id;sensor_type;location;lat;lon;timestamp;P1;durP1;ratioP1;P2;durP2;ratioP2
66270;SDS011;53063;39.614;8.814;2023-09-12T00:02:07;8.18;;;5.05;;
66270;SDS011;53063;39.614;8.814;2023-09-12T00:04:35;6.97;;;4.85;;
66270;SDS011;53063;39.614;8.814;2023-09-12T00:07:01;5.90;;;4.80;;
66270;SDS011;53063;39.614;8.814;2023-09-12T00:09:27;8.02;;;5.38;;
66270;SDS011;53063;39.614;8.814;2023-09-12T00:11:53;7.25;;;5.13;;
66270;SDS011;53063;39.614;8.814;2023-09-12T00:14:20;7.18;;;5.38;;
66270;SDS011;53063;39.614;8.814;2023-09-12T00:16:45;7.32;;;5.13;;
66270;SDS011;53063;39.614;8.814;2023-09-12T00:19:12;7.10;;;4.90;;
66270;SDS011;53063;39.614;8.814;2023-09-12T00:21:38;6.65;;;4.65;;
66270;SDS011;53063;39.614;8.814;2023-09-12T00:24:03;7.43;;;5.45;;
66270;SDS011;53063;39.614;8.814;2023-09-12T00:26:30;6.35;;;4.97;;
66270;SDS011;53063;39.614;8.814;2023-09-12T00:28:56;6.00;;;5.10;;
66270;SDS011;53063;39.614;8.814;2023-09-12T00:31:22;7.05;;;5.15;;
66270;SDS011;53063;39.614;8.814;2023-09-12T00:33:49;6.95;;;5.30;;
66270;SDS011;53063;39.614;8.814;2023-09-12T00:36:15;6.93;;;5.03;;
66270;SDS011;53063;39.614;8.814;2023-09-12T00:38:41;7.70;;;5.35;;
66270;SDS011;53063;39.614;8.814;2023-09-12T00:41:07;8.07;;;5.00;;
66270;SDS011;53063;39.614;8.814;2023-09-12T00:43:33;7.63;;;5.40;;
66270;SDS011;53063;39.614;8.814;2023-09-12T00:46:00;7.95;;;5.45;;
66270;SDS011;53063;39.614;8.814;2023-09-12T00:48:26;8.40;;;5.45;;
66270;SDS011;53063;39.614;8.814;2023-09-12T00:50:52;9.05;;;5.47;;
66270;SDS011;53063;39.614;8.814;2023-09-12T00:53:19;8.57;;;5.28;;
66270;SDS011;53063;39.614;8.814;2023-09-12T00:55:46;9.00;;;5.57;;
66270;SDS011;53063;39.614;8.814;2023-09-12T00:58:17;7.22;;;5.70;;
66270;SDS011;53063;39.614;8.814;2023-09-12T01:00:44;10.52;;;5.80;;
66270;SDS011;53063;39.614;8.814;2023-09-12T01:03:10;8.43;;;5.53;;
66270;SDS011;53063;39.614;8.814;2023-09-12T01:05:36;8.75;;;5.78;;
66270;SDS011;53063;39.614;8.814;2023-09-12T01:08:02;7.57;;;5.20;;
66270;SDS011;53063;39.614;8.814;2023-09-12T01:10:28;7.30;;;5.78;;
66270;SDS011;53063;39.614;8.814;2023-09-12T01:12:54;7.63;;;5.53;;
66270;SDS011;53063;39.614;8.814;2023-09-12T01:15:21;7.57;;;5.70;;
66270;SDS011;53063;39.614;8.814;2023-09-12T01:17:47;8.95;;;6.32;;
66270;SDS011;53063;39.614;8.814;2023-09-12T01:20:16;8.43;;;6.30;;
66270;SDS011;53063;39.614;8.814;2023-09-12T01:22:56;9.70;;;6.07;;
66270;SDS011;53063;39.614;8.814;2023-09-12T01:28:12;10.50;;;6.57;;
66270;SDS011;53063;39.614;8.814;2023-09-12T01:30:41;10.63;;;6.03;;
66270;SDS011;53063;39.614;8.814;2023-09-12T01:33:11;10.77;;;6.50;;
66270;SDS011;53063;39.614;8.814;2023-09-12T01:35:37;8.48;;;6.30;;
66270;SDS011;53063;39.614;8.814;2023-09-12T01:38:03;9.05;;;6.13;;
66270;SDS011;53063;39.614;8.814;2023-09-12T01:41:11;8.85;;;6.53;;
66270;SDS011;53063;39.614;8.814;2023-09-12T01:43:21;9.88;;;6.38;;
66270;SDS011;53063;39.614;8.814;2023-09-12T01:45:58;8.27;;;6.25;;
66270;SDS011;53063;39.614;8.814;2023-09-12T01:48:26;11.40;;;7.10;;
66270;SDS011;53063;39.614;8.814;2023-09-12T01:50:59;9.60;;;6.30;;
66270;SDS011;53063;39.614;8.814;2023-09-12T01:53:27;9.20;;;6.00;;
66270;SDS011;53063;39.614;8.814;2023-09-12T01:55:54;8.38;;;6.70;;
66270;SDS011;53063;39.614;8.814;2023-09-12T01:58:23;10.20;;;7.18;;
66270;SDS011;53063;39.614;8.814;2023-09-12T02:00:50;9.43;;;7.20;;
66270;SDS011;53063;39.614;8.814;2023-09-12T02:03:16;10.18;;;7.55;;
66270;SDS011;53063;39.614;8.814;2023-09-12T02:05:42;11.07;;;7.40;;
66270;SDS011;53063;39.614;8.814;2023-09-12T02:08:09;9.00;;;7.00;;
66270;SDS011;53063;39.614;8.814;2023-09-12T02:10:35;9.85;;;6.65;;
66270;SDS011;53063;39.614;8.814;2023-09-12T02:13:01;8.68;;;6.60;;
66270;SDS011;53063;39.614;8.814;2023-09-12T02:15:27;10.68;;;6.68;;
66270;SDS011;53063;39.614;8.814;2023-09-12T02:17:53;9.65;;;6.40;;
66270;SDS011;53063;39.614;8.814;2023-09-12T02:20:18;9.23;;;6.30;;
66270;SDS011;53063;39.614;8.814;2023-09-12T02:22:45;11.15;;;6.72;;
66270;SDS011;53063;39.614;8.814;2023-09-12T02:25:10;9.00;;;6.65;;
66270;SDS011;53063;39.614;8.814;2023-09-12T02:27:36;11.35;;;5.78;;
66270;SDS011;53063;39.614;8.814;2023-09-12T02:30:03;7.95;;;6.50;;
66270;SDS011;53063;39.614;8.814;2023-09-12T02:32:29;7.38;;;5.95;;
66270;SDS011;53063;39.614;8.814;2023-09-12T02:34:55;7.60;;;5.00;;
66270;SDS011;53063;39.614;8.814;2023-09-12T02:37:23;7.13;;;5.47;;
66270;SDS011;53063;39.614;8.814;2023-09-12T02:39:49;7.25;;;5.63;;
66270;SDS011;53063;39.614;8.814;2023-09-12T02:42:15;6.90;;;5.13;;
66270;SDS011;53063;39.614;8.814;2023-09-12T02:44:41;8.05;;;5.03;;
66270;SDS011;53063;39.614;8.814;2023-09-12T02:47:06;7.65;;;5.68;;
66270;SDS011;53063;39.614;8.814;2023-09-12T02:49:32;7.97;;;5.88;;
66270;SDS011;53063;39.614;8.814;2023-09-12T02:51:58;9.57;;;6.53;;
66270;SDS011;53063;39.614;8.814;2023-09-12T02:54:24;8.23;;;5.85;;
66270;SDS011;53063;39.614;8.814;2023-09-12T02:56:50;7.43;;;6.22;;
66270;SDS011;53063;39.614;8.814;2023-09-12T02:59:16;8.00;;;6.18;;
66270;SDS011;53063;39.614;8.814;2023-09-12T03:01:43;11.32;;;6.18;;
66270;SDS011;53063;39.614;8.814;2023-09-12T03:04:09;9.35;;;6.45;;
66270;SDS011;53063;39.614;8.814;2023-09-12T03:06:35;11.30;;;6.50;;
66270;SDS011;53063;39.614;8.814;2023-09-12T03:09:01;8.65;;;6.10;;
66270;SDS011;53063;39.614;8.814;2023-09-12T03:11:28;13.15;;;6.45;;
66270;SDS011;53063;39.614;8.814;2023-09-12T03:13:55;9.45;;;6.05;;
66270;SDS011;53063;39.614;8.814;2023-09-12T03:16:21;9.25;;;6.47;;
66270;SDS011;53063;39.614;8.814;2023-09-12T03:18:49;8.52;;;6.70;;
66270;SDS011;53063;39.614;8.814;2023-09-12T03:21:16;10.35;;;6.25;;
66270;SDS011;53063;39.614;8.814;2023-09-12T03:23:42;10.75;;;6.47;;
66270;SDS011;53063;39.614;8.814;2023-09-12T03:26:08;11.45;;;7.38;;
66270;SDS011;53063;39.614;8.814;2023-09-12T03:28:35;9.30;;;6.72;;
66270;SDS011;53063;39.614;8.814;2023-09-12T03:33:34;9.65;;;7.05;;
66270;SDS011;53063;39.614;8.814;2023-09-12T03:36:00;11.50;;;7.95;;
66270;SDS011;53063;39.614;8.814;2023-09-12T03:38:26;9.27;;;7.20;;
66270;SDS011;53063;39.614;8.814;2023-09-12T03:40:52;11.07;;;7.15;;
66270;SDS011;53063;39.614;8.814;2023-09-12T03:43:17;9.98;;;7.18;;
66270;SDS011;53063;39.614;8.814;2023-09-12T03:45:43;10.05;;;7.43;;
66270;SDS011;53063;39.614;8.814;2023-09-12T03:48:09;9.40;;;7.03;;
66270;SDS011;53063;39.614;8.814;2023-09-12T03:50:35;11.80;;;7.15;;
66270;SDS011;53063;39.614;8.814;2023-09-12T03:53:01;13.43;;;7.55;;
66270;SDS011;53063;39.614;8.814;2023-09-12T03:55:28;12.90;;;7.10;;
66270;SDS011;53063;39.614;8.814;2023-09-12T03:57:54;8.60;;;6.60;;
66270;SDS011;53063;39.614;8.814;2023-09-12T04:00:20;11.25;;;6.75;;
66270;SDS011;53063;39.614;8.814;2023-09-12T04:02:48;9.80;;;7.00;;
66270;SDS011;53063;39.614;8.814;2023-09-12T04:05:14;9.73;;;7.15;;
66270;SDS011;53063;39.614;8.814;2023-09-12T04:07:40;12.90;;;7.82;;
66270;SDS011;53063;39.614;8.814;2023-09-12T04:10:06;13.52;;;7.63;;
66270;SDS011;53063;39.614;8.814;2023-09-12T04:12:32;12.02;;;7.38;;
66270;SDS011;53063;39.614;8.814;2023-09-12T04:14:58;11.38;;;7.22;;
66270;SDS011;53063;39.614;8.814;2023-09-12T04:17:24;9.57;;;7.18;;
66270;SDS011;53063;39.614;8.814;2023-09-12T04:19:50;8.43;;;6.53;;
66270;SDS011;53063;39.614;8.814;2023-09-12T04:22:16;10.77;;;6.65;;
66270;SDS011;53063;39.614;8.814;2023-09-12T04:24:42;9.32;;;6.47;;
66270;SDS011;53063;39.614;8.814;2023-09-12T04:27:08;13.57;;;7.10;;
66270;SDS011;53063;39.614;8.814;2023-09-12T04:29:34;7.97;;;5.97;;
66270;SDS011;53063;39.614;8.814;2023-09-12T04:32:03;8.43;;;6.10;;
66270;SDS011;53063;39.614;8.814;2023-09-12T04:34:29;9.77;;;5.40;;
66270;SDS011;53063;39.614;8.814;2023-09-12T04:36:56;8.00;;;5.68;;
66270;SDS011;53063;39.614;8.814;2023-09-12T04:39:23;7.18;;;5.93;;
66270;SDS011;53063;39.614;8.814;2023-09-12T04:41:50;9.05;;;5.97;;
66270;SDS011;53063;39.614;8.814;2023-09-12T04:44:16;9.60;;;6.07;;
66270;SDS011;53063;39.614;8.814;2023-09-12T04:46:42;9.90;;;5.90;;
66270;SDS011;53063;39.614;8.814;2023-09-12T04:49:07;10.00;;;6.07;;
66270;SDS011;53063;39.614;8.814;2023-09-12T04:51:34;8.80;;;5.68;;
66270;SDS011;53063;39.614;8.814;2023-09-12T04:54:00;8.30;;;5.50;;
66270;SDS011;53063;39.614;8.814;2023-09-12T04:56:26;9.60;;;5.70;;
66270;SDS011;53063;39.614;8.814;2023-09-12T04:58:52;11.07;;;5.85;;
66270;SDS011;53063;39.614;8.814;2023-09-12T05:01:18;9.68;;;6.30;;
66270;SDS011;53063;39.614;8.814;2023-09-12T05:03:44;12.77;;;6.07;;
66270;SDS011;53063;39.614;8.814;2023-09-12T05:06:12;10.93;;;6.72;;
66270;SDS011;53063;39.614;8.814;2023-09-12T05:08:39;10.13;;;5.72;;
66270;SDS011;53063;39.614;8.814;2023-09-12T05:11:05;12.02;;;6.10;;
66270;SDS011;53063;39.614;8.814;2023-09-12T05:13:31;8.77;;;6.15;;
66270;SDS011;53063;39.614;8.814;2023-09-12T05:15:59;7.97;;;5.90;;
66270;SDS011;53063;39.614;8.814;2023-09-12T05:18:25;8.93;;;5.85;;
66270;SDS011;53063;39.614;8.814;2023-09-12T05:20:51;8.30;;;6.00;;
66270;SDS011;53063;39.614;8.814;2023-09-12T05:23:17;11.68;;;6.60;;
66270;SDS011;53063;39.614;8.814;2023-09-12T05:25:43;10.90;;;7.07;;
66270;SDS011;53063;39.614;8.814;2023-09-12T05:28:09;8.40;;;5.97;;
66270;SDS011;53063;39.614;8.814;2023-09-12T05:30:35;11.68;;;6.40;;
66270;SDS011;53063;39.614;8.814;2023-09-12T05:33:01;10.52;;;6.22;;
66270;SDS011;53063;39.614;8.814;2023-09-12T05:35:27;14.65;;;7.03;;
66270;SDS011;53063;39.614;8.814;2023-09-12T05:37:53;8.82;;;7.10;;
66270;SDS011;53063;39.614;8.814;2023-09-12T05:40:19;11.18;;;7.55;;
66270;SDS011;53063;39.614;8.814;2023-09-12T05:42:46;11.00;;;7.00;;
66270;SDS011;53063;39.614;8.814;2023-09-12T05:45:12;20.77;;;8.63;;
66270;SDS011;53063;39.614;8.814;2023-09-12T05:47:38;20.00;;;7.72;;
66270;SDS011;53063;39.614;8.814;2023-09-12T05:50:05;21.63;;;7.40;;
66270;SDS011;53063;39.614;8.814;2023-09-12T05:52:33;16.70;;;7.00;;
66270;SDS011;53063;39.614;8.814;2023-09-12T05:54:59;13.70;;;6.65;;
66270;SDS011;53063;39.614;8.814;2023-09-12T05:57:26;11.35;;;6.90;;
66270;SDS011;53063;39.614;8.814;2023-09-12T05:59:52;11.80;;;6.95;;
66270;SDS011;53063;39.614;8.814;2023-09-12T06:02:18;10.43;;;7.32;;
66270;SDS011;53063;39.614;8.814;2023-09-12T06:04:44;12.23;;;7.22;;
66270;SDS011;53063;39.614;8.814;2023-09-12T06:07:10;14.20;;;7.18;;
66270;SDS011;53063;39.614;8.814;2023-09-12T06:09:36;13.20;;;7.53;;
66270;SDS011;53063;39.614;8.814;2023-09-12T06:12:02;13.32;;;7.05;;
66270;SDS011;53063;39.614;8.814;2023-09-12T06:14:29;13.73;;;7.38;;
66270;SDS011;53063;39.614;8.814;2023-09-12T06:16:54;13.93;;;7.10;;
66270;SDS011;53063;39.614;8.814;2023-09-12T06:19:20;10.88;;;6.65;;
66270;SDS011;53063;39.614;8.814;2023-09-12T06:21:46;14.05;;;6.80;;
66270;SDS011;53063;39.614;8.814;2023-09-12T06:26:40;9.68;;;6.90;;
66270;SDS011;53063;39.614;8.814;2023-09-12T06:29:06;13.07;;;7.82;;
66270;SDS011;53063;39.614;8.814;2023-09-12T06:31:32;12.98;;;6.60;;
66270;SDS011;53063;39.614;8.814;2023-09-12T06:33:58;14.10;;;6.75;;
66270;SDS011;53063;39.614;8.814;2023-09-12T06:36:25;9.23;;;6.53;;
66270;SDS011;53063;39.614;8.814;2023-09-12T06:38:55;13.45;;;6.07;;
66270;SDS011;53063;39.614;8.814;2023-09-12T06:41:21;10.55;;;6.95;;
66270;SDS011;53063;39.614;8.814;2023-09-12T06:43:47;9.00;;;5.90;;
66270;SDS011;53063;39.614;8.814;2023-09-12T06:46:13;9.48;;;6.30;;
66270;SDS011;53063;39.614;8.814;2023-09-12T06:48:39;7.47;;;5.85;;
66270;SDS011;53063;39.614;8.814;2023-09-12T06:51:05;9.43;;;5.63;;
66270;SDS011;53063;39.614;8.814;2023-09-12T06:53:33;8.25;;;5.93;;
66270;SDS011;53063;39.614;8.814;2023-09-12T06:55:59;9.95;;;6.32;;
66270;SDS011;53063;39.614;8.814;2023-09-12T06:58:25;12.02;;;5.90;;
66270;SDS011;53063;39.614;8.814;2023-09-12T07:00:51;9.77;;;5.80;;
66270;SDS011;53063;39.614;8.814;2023-09-12T07:03:17;9.75;;;5.78;;
66270;SDS011;53063;39.614;8.814;2023-09-12T07:05:43;10.93;;;5.38;;
66270;SDS011;53063;39.614;8.814;2023-09-12T07:08:09;8.20;;;5.75;;
66270;SDS011;53063;39.614;8.814;2023-09-12T07:10:35;9.30;;;5.85;;
66270;SDS011;53063;39.614;8.814;2023-09-12T07:13:02;10.60;;;6.20;;
66270;SDS011;53063;39.614;8.814;2023-09-12T07:15:29;10.65;;;5.78;;
66270;SDS011;53063;39.614;8.814;2023-09-12T07:17:54;8.10;;;5.50;;
66270;SDS011;53063;39.614;8.814;2023-09-12T07:20:21;8.32;;;5.63;;
66270;SDS011;53063;39.614;8.814;2023-09-12T07:22:47;8.52;;;5.93;;
66270;SDS011;53063;39.614;8.814;2023-09-12T07:25:13;10.52;;;6.60;;
66270;SDS011;53063;39.614;8.814;2023-09-12T07:27:39;6.90;;;5.25;;
66270;SDS011;53063;39.614;8.814;2023-09-12T07:30:05;15.02;;;6.10;;
66270;SDS011;53063;39.614;8.814;2023-09-12T07:32:32;7.97;;;5.15;;
66270;SDS011;53063;39.614;8.814;2023-09-12T07:34:58;9.57;;;5.82;;
66270;SDS011;53063;39.614;8.814;2023-09-12T07:37:24;9.50;;;5.47;;
66270;SDS011;53063;39.614;8.814;2023-09-12T07:39:50;7.85;;;5.57;;
66270;SDS011;53063;39.614;8.814;2023-09-12T07:42:16;8.27;;;5.32;;
66270;SDS011;53063;39.614;8.814;2023-09-12T07:44:45;7.85;;;5.30;;
66270;SDS011;53063;39.614;8.814;2023-09-12T07:47:11;9.50;;;5.68;;
66270;SDS011;53063;39.614;8.814;2023-09-12T07:49:37;7.28;;;5.30;;
66270;SDS011;53063;39.614;8.814;2023-09-12T07:52:03;23.45;;;6.97;;
66270;SDS011;53063;39.614;8.814;2023-09-12T07:54:29;12.00;;;5.43;;
66270;SDS011;53063;39.614;8.814;2023-09-12T07:56:56;9.07;;;6.03;;
66270;SDS011;53063;39.614;8.814;2023-09-12T07:59:22;8.38;;;5.10;;
66270;SDS011;53063;39.614;8.814;2023-09-12T08:01:48;6.55;;;5.20;;
66270;SDS011;53063;39.614;8.814;2023-09-12T08:04:13;8.77;;;5.18;;
66270;SDS011;53063;39.614;8.814;2023-09-12T08:06:40;8.38;;;5.13;;
66270;SDS011;53063;39.614;8.814;2023-09-12T08:09:06;8.07;;;5.25;;
66270;SDS011;53063;39.614;8.814;2023-09-12T08:11:33;8.43;;;5.07;;
66270;SDS011;53063;39.614;8.814;2023-09-12T08:13:59;8.88;;;5.40;;
66270;SDS011;53063;39.614;8.814;2023-09-12T08:16:25;9.07;;;4.95;;
66270;SDS011;53063;39.614;8.814;2023-09-12T08:18:51;7.05;;;5.15;;
66270;SDS011;53063;39.614;8.814;2023-09-12T08:21:16;6.53;;;4.78;;
66270;SDS011;53063;39.614;8.814;2023-09-12T08:23:42;6.95;;;4.55;;
66270;SDS011;53063;39.614;8.814;2023-09-12T08:26:08;7.55;;;4.90;;
66270;SDS011;53063;39.614;8.814;2023-09-12T08:28:35;8.95;;;5.53;;
66270;SDS011;53063;39.614;8.814;2023-09-12T08:31:01;10.07;;;4.63;;
66270;SDS011;53063;39.614;8.814;2023-09-12T08:33:27;9.63;;;4.65;;
66270;SDS011;53063;39.614;8.814;2023-09-12T08:35:53;6.25;;;4.70;;
66270;SDS011;53063;39.614;8.814;2023-09-12T08:38:19;7.00;;;4.78;;
66270;SDS011;53063;39.614;8.814;2023-09-12T08:40:48;6.68;;;4.47;;
66270;SDS011;53063;39.614;8.814;2023-09-12T08:43:15;12.07;;;6.57;;
66270;SDS011;53063;39.614;8.814;2023-09-12T08:45:41;7.13;;;4.50;;
66270;SDS011;53063;39.614;8.814;2023-09-12T08:48:09;14.30;;;5.18;;
66270;SDS011;53063;39.614;8.814;2023-09-12T08:50:37;8.82;;;4.57;;
66270;SDS011;53063;39.614;8.814;2023-09-12T08:53:03;6.75;;;4.60;;
66270;SDS011;53063;39.614;8.814;2023-09-12T08:55:30;7.20;;;5.03;;
66270;SDS011;53063;39.614;8.814;2023-09-12T08:57:58;8.73;;;4.95;;
66270;SDS011;53063;39.614;8.814;2023-09-12T09:00:27;7.32;;;5.05;;
66270;SDS011;53063;39.614;8.814;2023-09-12T09:02:54;7.45;;;5.30;;
66270;SDS011;53063;39.614;8.814;2023-09-12T09:05:21;6.95;;;4.95;;
66270;SDS011;53063;39.614;8.814;2023-09-12T09:07:48;6.10;;;4.85;;
66270;SDS011;53063;39.614;8.814;2023-09-12T09:10:17;6.38;;;4.22;;
66270;SDS011;53063;39.614;8.814;2023-09-12T09:12:45;6.03;;;4.47;;
66270;SDS011;53063;39.614;8.814;2023-09-12T09:15:21;5.53;;;4.70;;
66270;SDS011;53063;39.614;8.814;2023-09-12T09:17:49;7.43;;;4.68;;
66270;SDS011;53063;39.614;8.814;2023-09-12T09:20:32;6.63;;;4.68;;
66270;SDS011;53063;39.614;8.814;2023-09-12T09:23:05;5.97;;;4.30;;
66270;SDS011;53063;39.614;8.814;2023-09-12T09:25:36;8.90;;;4.30;;
66270;SDS011;53063;39.614;8.814;2023-09-12T09:28:05;6.80;;;4.78;;
66270;SDS011;53063;39.614;8.814;2023-09-12T09:33:14;5.82;;;4.90;;
66270;SDS011;53063;39.614;8.814;2023-09-12T09:35:45;10.13;;;4.47;;
66270;SDS011;53063;39.614;8.814;2023-09-12T09:40:42;6.68;;;4.30;;
66270;SDS011;53063;39.614;8.814;2023-09-12T09:43:08;7.70;;;4.72;;
66270;SDS011;53063;39.614;8.814;2023-09-12T09:45:42;6.50;;;4.13;;
66270;SDS011;53063;39.614;8.814;2023-09-12T09:48:10;6.43;;;4.70;;
66270;SDS011;53063;39.614;8.814;2023-09-12T09:50:42;9.00;;;5.13;;
66270;SDS011;53063;39.614;8.814;2023-09-12T09:53:08;9.07;;;4.78;;
66270;SDS011;53063;39.614;8.814;2023-09-12T09:55:35;5.03;;;4.47;;
66270;SDS011;53063;39.614;8.814;2023-09-12T09:58:02;6.28;;;4.70;;
66270;SDS011;53063;39.614;8.814;2023-09-12T10:00:30;10.95;;;4.85;;
66270;SDS011;53063;39.614;8.814;2023-09-12T10:02:59;7.90;;;4.75;;
66270;SDS011;53063;39.614;8.814;2023-09-12T10:05:27;5.90;;;4.57;;
66270;SDS011;53063;39.614;8.814;2023-09-12T10:07:56;9.80;;;5.20;;
66270;SDS011;53063;39.614;8.814;2023-09-12T10:10:26;6.90;;;5.15;;
66270;SDS011;53063;39.614;8.814;2023-09-12T10:12:56;7.50;;;4.85;;
66270;SDS011;53063;39.614;8.814;2023-09-12T10:15:23;7.78;;;5.07;;
66270;SDS011;53063;39.614;8.814;2023-09-12T10:17:55;11.82;;;5.63;;
66270;SDS011;53063;39.614;8.814;2023-09-12T10:20:28;18.50;;;6.40;;
66270;SDS011;53063;39.614;8.814;2023-09-12T10:23:07;11.93;;;5.40;;
66270;SDS011;53063;39.614;8.814;2023-09-12T10:25:37;9.82;;;4.90;;
66270;SDS011;53063;39.614;8.814;2023-09-12T10:28:05;6.95;;;5.40;;
66270;SDS011;53063;39.614;8.814;2023-09-12T10:30:32;6.03;;;4.72;;
66270;SDS011;53063;39.614;8.814;2023-09-12T10:33:00;8.27;;;4.97;;
66270;SDS011;53063;39.614;8.814;2023-09-12T10:35:29;6.03;;;5.10;;
66270;SDS011;53063;39.614;8.814;2023-09-12T10:37:59;8.52;;;5.03;;
66270;SDS011;53063;39.614;8.814;2023-09-12T10:42:57;7.22;;;4.55;;
66270;SDS011;53063;39.614;8.814;2023-09-12T10:45:24;11.73;;;4.80;;
66270;SDS011;53063;39.614;8.814;2023-09-12T10:47:51;6.65;;;4.55;;
66270;SDS011;53063;39.614;8.814;2023-09-12T10:50:18;8.07;;;4.85;;
66270;SDS011;53063;39.614;8.814;2023-09-12T10:52:45;6.65;;;4.35;;
66270;SDS011;53063;39.614;8.814;2023-09-12T10:55:20;7.00;;;5.00;;
66270;SDS011;53063;39.614;8.814;2023-09-12T10:58:02;5.68;;;4.38;;
66270;SDS011;53063;39.614;8.814;2023-09-12T11:00:29;10.30;;;4.80;;
66270;SDS011;53063;39.614;8.814;2023-09-12T11:02:58;5.70;;;4.50;;
66270;SDS011;53063;39.614;8.814;2023-09-12T11:07:57;6.13;;;4.32;;
66270;SDS011;53063;39.614;8.814;2023-09-12T11:10:24;11.00;;;5.07;;
66270;SDS011;53063;39.614;8.814;2023-09-12T11:12:52;5.80;;;4.50;;
66270;SDS011;53063;39.614;8.814;2023-09-12T11:15:25;5.47;;;4.40;;
66270;SDS011;53063;39.614;8.814;2023-09-12T11:18:05;8.32;;;5.07;;
66270;SDS011;53063;39.614;8.814;2023-09-12T11:20:50;7.15;;;4.32;;
66270;SDS011;53063;39.614;8.814;2023-09-12T11:23:28;7.03;;;4.78;;
66270;SDS011;53063;39.614;8.814;2023-09-12T11:26:03;6.60;;;4.28;;
66270;SDS011;53063;39.614;8.814;2023-09-12T11:28:32;5.80;;;4.60;;
66270;SDS011;53063;39.614;8.814;2023-09-12T11:30:59;8.50;;;5.13;;
66270;SDS011;53063;39.614;8.814;2023-09-12T11:33:25;6.40;;;4.70;;
66270;SDS011;53063;39.614;8.814;2023-09-12T11:35:54;7.35;;;5.13;;
66270;SDS011;53063;39.614;8.814;2023-09-12T11:38:26;8.13;;;4.93;;
66270;SDS011;53063;39.614;8.814;2023-09-12T11:40:56;5.90;;;5.13;;
66270;SDS011;53063;39.614;8.814;2023-09-12T11:43:24;7.22;;;5.28;;
66270;SDS011;53063;39.614;8.814;2023-09-12T11:45:51;8.52;;;5.10;;
66270;SDS011;53063;39.614;8.814;2023-09-12T11:48:18;7.30;;;4.88;;
66270;SDS011;53063;39.614;8.814;2023-09-12T11:50:52;6.95;;;5.07;;
66270;SDS011;53063;39.614;8.814;2023-09-12T11:53:20;7.65;;;5.82;;
66270;SDS011;53063;39.614;8.814;2023-09-12T11:55:48;7.55;;;4.97;;
66270;SDS011;53063;39.614;8.814;2023-09-12T11:58:17;7.63;;;4.93;;
66270;SDS011;53063;39.614;8.814;2023-09-12T12:00:48;8.15;;;5.50;;
66270;SDS011;53063;39.614;8.814;2023-09-12T12:03:19;8.77;;;5.22;;
66270;SDS011;53063;39.614;8.814;2023-09-12T12:05:47;5.97;;;5.07;;
66270;SDS011;53063;39.614;8.814;2023-09-12T12:08:14;5.65;;;4.53;;
66270;SDS011;53063;39.614;8.814;2023-09-12T12:10:41;6.15;;;5.18;;
66270;SDS011;53063;39.614;8.814;2023-09-12T12:13:11;8.82;;;5.03;;
66270;SDS011;53063;39.614;8.814;2023-09-12T12:15:37;7.85;;;5.40;;
66270;SDS011;53063;39.614;8.814;2023-09-12T12:18:03;10.35;;;5.03;;
66270;SDS011;53063;39.614;8.814;2023-09-12T12:20:30;8.98;;;5.25;;
66270;SDS011;53063;39.614;8.814;2023-09-12T12:22:56;7.22;;;5.10;;
66270;SDS011;53063;39.614;8.814;2023-09-12T12:25:22;6.43;;;4.93;;
66270;SDS011;53063;39.614;8.814;2023-09-12T12:27:48;6.93;;;4.55;;
66270;SDS011;53063;39.614;8.814;2023-09-12T12:30:14;7.20;;;5.00;;
66270;SDS011;53063;39.614;8.814;2023-09-12T12:32:41;8.90;;;5.10;;
66270;SDS011;53063;39.614;8.814;2023-09-12T12:35:08;7.60;;;4.68;;
66270;SDS011;53063;39.614;8.814;2023-09-12T12:37:35;7.97;;;4.78;;
66270;SDS011;53063;39.614;8.814;2023-09-12T12:40:02;5.18;;;4.50;;
66270;SDS011;53063;39.614;8.814;2023-09-12T12:42:33;9.10;;;4.80;;
66270;SDS011;53063;39.614;8.814;2023-09-12T12:45:00;8.98;;;4.38;;
66270;SDS011;53063;39.614;8.814;2023-09-12T12:47:26;5.63;;;4.43;;
66270;SDS011;53063;39.614;8.814;2023-09-12T12:49:54;6.38;;;4.75;;
66270;SDS011;53063;39.614;8.814;2023-09-12T12:52:23;7.13;;;4.97;;
66270;SDS011;53063;39.614;8.814;2023-09-12T12:54:50;7.47;;;4.95;;
66270;SDS011;53063;39.614;8.814;2023-09-12T12:57:19;6.18;;;4.72;;
66270;SDS011;53063;39.614;8.814;2023-09-12T12:59:47;7.00;;;4.75;;
66270;SDS011;53063;39.614;8.814;2023-09-12T13:02:14;8.00;;;5.13;;
66270;SDS011;53063;39.614;8.814;2023-09-12T13:04:40;5.10;;;4.32;;
66270;SDS011;53063;39.614;8.814;2023-09-12T13:07:06;6.50;;;4.57;;
66270;SDS011;53063;39.614;8.814;2023-09-12T13:09:32;8.85;;;4.90;;
66270;SDS011;53063;39.614;8.814;2023-09-12T13:11:58;5.82;;;4.47;;
66270;SDS011;53063;39.614;8.814;2023-09-12T13:14:25;9.55;;;5.78;;
66270;SDS011;53063;39.614;8.814;2023-09-12T13:16:59;8.05;;;5.38;;
66270;SDS011;53063;39.614;8.814;2023-09-12T13:19:25;5.93;;;5.03;;
66270;SDS011;53063;39.614;8.814;2023-09-12T13:21:51;6.40;;;5.00;;
66270;SDS011;53063;39.614;8.814;2023-09-12T13:24:17;9.55;;;5.28;;
66270;SDS011;53063;39.614;8.814;2023-09-12T13:26:43;6.85;;;5.07;;
66270;SDS011;53063;39.614;8.814;2023-09-12T13:29:09;9.18;;;5.00;;
66270;SDS011;53063;39.614;8.814;2023-09-12T13:31:35;7.60;;;4.78;;
66270;SDS011;53063;39.614;8.814;2023-09-12T13:34:01;6.80;;;4.80;;
66270;SDS011;53063;39.614;8.814;2023-09-12T13:36:28;7.15;;;4.70;;
66270;SDS011;53063;39.614;8.814;2023-09-12T13:38:54;6.30;;;5.00;;
66270;SDS011;53063;39.614;8.814;2023-09-12T13:41:21;5.18;;;4.43;;
66270;SDS011;53063;39.614;8.814;2023-09-12T13:43:48;9.52;;;5.45;;
66270;SDS011;53063;39.614;8.814;2023-09-12T13:46:14;6.32;;;4.60;;
66270;SDS011;53063;39.614;8.814;2023-09-12T13:48:41;6.25;;;4.30;;
66270;SDS011;53063;39.614;8.814;2023-09-12T13:51:07;6.88;;;4.78;;
66270;SDS011;53063;39.614;8.814;2023-09-12T13:53:33;5.95;;;4.50;;
66270;SDS011;53063;39.614;8.814;2023-09-12T13:55:59;5.15;;;4.47;;
66270;SDS011;53063;39.614;8.814;2023-09-12T13:58:26;6.18;;;4.63;;
66270;SDS011;53063;39.614;8.814;2023-09-12T14:00:52;8.38;;;4.38;;
66270;SDS011;53063;39.614;8.814;2023-09-12T14:03:18;6.15;;;3.90;;
66270;SDS011;53063;39.614;8.814;2023-09-12T14:05:45;8.18;;;5.00;;
66270;SDS011;53063;39.614;8.814;2023-09-12T14:08:11;6.38;;;4.28;;
66270;SDS011;53063;39.614;8.814;2023-09-12T14:10:36;5.88;;;4.28;;
66270;SDS011;53063;39.614;8.814;2023-09-12T14:13:02;7.20;;;4.50;;
66270;SDS011;53063;39.614;8.814;2023-09-12T14:15:28;9.57;;;4.82;;
66270;SDS011;53063;39.614;8.814;2023-09-12T14:17:54;7.32;;;4.47;;
66270;SDS011;53063;39.614;8.814;2023-09-12T14:20:20;6.97;;;4.47;;
66270;SDS011;53063;39.614;8.814;2023-09-12T14:22:46;7.20;;;4.43;;
66270;SDS011;53063;39.614;8.814;2023-09-12T14:25:12;6.60;;;4.35;;
66270;SDS011;53063;39.614;8.814;2023-09-12T14:27:40;5.10;;;4.00;;
66270;SDS011;53063;39.614;8.814;2023-09-12T14:30:08;6.20;;;4.47;;
66270;SDS011;53063;39.614;8.814;2023-09-12T14:32:34;6.50;;;4.13;;
66270;SDS011;53063;39.614;8.814;2023-09-12T14:35:00;5.63;;;4.50;;
66270;SDS011;53063;39.614;8.814;2023-09-12T14:37:26;5.95;;;4.43;;
66270;SDS011;53063;39.614;8.814;2023-09-12T14:39:53;7.55;;;4.63;;
66270;SDS011;53063;39.614;8.814;2023-09-12T14:42:21;8.10;;;4.15;;
66270;SDS011;53063;39.614;8.814;2023-09-12T14:44:47;7.10;;;4.20;;
66270;SDS011;53063;39.614;8.814;2023-09-12T14:47:13;6.22;;;4.60;;
66270;SDS011;53063;39.614;8.814;2023-09-12T14:49:39;8.63;;;4.18;;
66270;SDS011;53063;39.614;8.814;2023-09-12T14:52:05;10.25;;;4.38;;
66270;SDS011;53063;39.614;8.814;2023-09-12T14:54:31;6.25;;;4.18;;
66270;SDS011;53063;39.614;8.814;2023-09-12T14:56:57;7.18;;;4.55;;
66270;SDS011;53063;39.614;8.814;2023-09-12T14:59:23;5.78;;;4.03;;
66270;SDS011;53063;39.614;8.814;2023-09-12T15:01:49;8.63;;;4.40;;
66270;SDS011;53063;39.614;8.814;2023-09-12T15:04:14;5.03;;;4.13;;